Terminal Aerodrome Forecast
Issued by NWS

Home | Current Version | Previous Version | Text Only | Print | Product List | Glossary Off
Versions: 1 2 3 4 5 6 7 8 9 10 11 12 13

000
FTUS44 KTSA 301700
TAFBVO
TAF
KBVO 301736Z 3018/3118 18008KT P6SM SCT250
     FM310000 00000KT P6SM SCT250
     FM310800 00000KT 3SM BR SCT010
     FM311100 00000KT 1SM BR BKN004
     FM311400 00000KT 4SM BR SCT008
     FM311500 13004KT P6SM SKC=

USA.gov is the U.S. government's official web portal to all federal, state and local government web resources and services.